createdAt,value
2019-02-15T00:00:35.757Z,82.49
2019-02-15T00:03:06.763Z,82.64
2019-02-15T00:05:36.098Z,82.69
2019-02-15T00:08:05.465Z,82.72
2019-02-15T00:10:34.799Z,82.95
2019-02-15T00:13:13.055Z,83.15
2019-02-15T00:15:35.206Z,83.39
2019-02-15T00:18:22.416Z,83.37
2019-02-15T00:20:59.514Z,82.95
2019-02-15T00:23:28.878Z,82.93
2019-02-15T00:25:58.213Z,82.82
2019-02-15T00:28:27.578Z,83.10
2019-02-15T00:30:56.922Z,83.49
2019-02-15T00:33:26.327Z,83.80
2019-02-15T00:35:56.111Z,82.76
2019-02-15T00:38:25.476Z,84.07
2019-02-15T00:40:54.817Z,84.77
2019-02-15T00:43:24.179Z,84.75
2019-02-15T00:45:57.532Z,84.69
2019-02-15T00:48:28.461Z,84.71
2019-02-15T00:51:02.469Z,84.07
2019-02-15T00:53:33.471Z,83.71
2019-02-15T00:56:13.518Z,84.52
2019-02-15T00:58:47.473Z,84.82
2019-02-15T01:01:18.441Z,83.96
2019-02-15T01:03:52.417Z,84.43
2019-02-15T01:06:38.394Z,84.03
2019-02-15T01:09:09.397Z,84.06
2019-02-15T01:11:46.326Z,83.88
2019-02-15T01:14:15.693Z,84.58
2019-02-15T01:16:45.018Z,84.54
2019-02-15T01:19:14.397Z,84.13
2019-02-15T01:21:43.732Z,83.68
2019-02-15T01:24:13.101Z,84.96
2019-02-15T01:26:44.103Z,85.58
2019-02-15T01:29:24.115Z,85.70
2019-02-15T01:32:06.786Z,85.50
2019-02-15T01:34:54.160Z,85.52
2019-02-15T01:37:25.133Z,85.52
2019-02-15T01:40:12.902Z,84.69
2019-02-15T01:42:43.878Z,85.67
2019-02-15T01:45:24.172Z,85.06
2019-02-15T01:47:53.500Z,85.26
2019-02-15T01:50:22.870Z,85.43
2019-02-15T01:52:52.206Z,86.19
2019-02-15T01:55:21.963Z,86.72
2019-02-15T01:57:51.324Z,87.19
2019-02-15T02:00:22.587Z,86.92
2019-02-15T02:02:52.296Z,86.49
2019-02-15T02:05:21.933Z,86.30
2019-02-15T02:07:51.310Z,86.09
2019-02-15T02:10:20.643Z,86.52
2019-02-15T02:12:50.174Z,87.15
2019-02-15T02:15:19.580Z,87.23
2019-02-15T02:17:49.293Z,87.13
2019-02-15T02:20:18.626Z,87.09
2019-02-15T02:22:47.994Z,87.09
2019-02-15T02:25:17.328Z,86.85
2019-02-15T02:27:46.684Z,86.72
2019-02-15T02:30:16.023Z,87.14
2019-02-15T02:32:45.383Z,87.14
2019-02-15T02:35:14.717Z,86.97
2019-02-15T02:37:44.084Z,87.04
2019-02-15T02:40:13.427Z,87.24
2019-02-15T02:42:42.787Z,87.25
2019-02-15T02:45:12.127Z,87.45
2019-02-15T02:47:41.504Z,87.90
2019-02-15T02:50:10.834Z,87.97
2019-02-15T02:52:40.199Z,87.99
2019-02-15T02:55:09.536Z,88.09
2019-02-15T02:57:38.909Z,88.41
2019-02-15T03:00:08.750Z,88.42
2019-02-15T03:02:38.116Z,88.16
2019-02-15T03:05:07.446Z,88.14
2019-02-15T03:07:36.816Z,88.12
2019-02-15T03:10:06.883Z,87.84
2019-02-15T03:12:36.250Z,87.71
2019-02-15T03:15:06.121Z,87.81
2019-02-15T03:17:35.487Z,88.14
2019-02-15T03:20:06.363Z,88.31
2019-02-15T03:22:35.742Z,88.37
2019-02-15T03:25:05.090Z,88.27
2019-02-15T03:27:34.446Z,88.10
2019-02-15T03:30:04.656Z,87.89
2019-02-15T03:32:34.019Z,88.04
2019-02-15T03:35:03.945Z,88.44
2019-02-15T03:37:51.365Z,88.21
2019-02-15T03:40:25.037Z,88.36
2019-02-15T03:42:54.450Z,88.32
2019-02-15T03:45:24.380Z,88.44
2019-02-15T03:47:54.301Z,88.43
2019-02-15T03:50:23.729Z,88.56
2019-02-15T03:52:53.084Z,88.53
2019-02-15T03:55:22.567Z,88.84
2019-02-15T03:57:52.080Z,89.06
2019-02-15T04:00:21.448Z,88.72
2019-02-15T04:02:50.781Z,88.78
2019-02-15T04:05:20.142Z,88.75
2019-02-15T04:07:49.486Z,88.71
2019-02-15T04:10:18.929Z,88.58
2019-02-15T04:12:48.270Z,88.71
2019-02-15T04:15:17.653Z,88.87
2019-02-15T04:17:46.987Z,89.25
2019-02-15T04:20:16.345Z,89.10
2019-02-15T04:22:45.684Z,89.13
2019-02-15T04:25:15.051Z,88.54
2019-02-15T04:27:44.380Z,85.89
2019-02-15T04:30:13.814Z,86.68
2019-02-15T04:32:43.151Z,86.64
2019-02-15T04:35:12.522Z,86.74
2019-02-15T04:37:41.855Z,87.11
2019-02-15T04:40:11.214Z,87.47
2019-02-15T04:42:40.579Z,87.31
2019-02-15T04:45:09.958Z,87.25
2019-02-15T04:47:39.293Z,86.65
2019-02-15T04:50:09.192Z,86.05
2019-02-15T04:52:38.532Z,86.20
2019-02-15T04:55:07.896Z,85.47
2019-02-15T04:57:37.240Z,85.98
2019-02-15T05:00:08.453Z,86.12
2019-02-15T05:02:37.793Z,86.72
2019-02-15T05:05:07.735Z,86.68
2019-02-15T05:07:37.065Z,86.34
2019-02-15T05:10:06.448Z,86.10
2019-02-15T05:12:35.795Z,85.89
2019-02-15T05:15:07.302Z,85.58
2019-02-15T05:17:36.707Z,85.75
2019-02-15T05:20:07.829Z,85.59
2019-02-15T05:22:37.164Z,86.06
2019-02-15T05:25:06.548Z,86.85
2019-02-15T05:27:35.882Z,87.38
2019-02-15T05:30:06.996Z,87.68
2019-02-15T05:32:36.341Z,88.42
2019-02-15T05:35:06.088Z,88.65
2019-02-15T05:37:35.425Z,88.79
2019-02-15T05:40:05.830Z,89.09
2019-02-15T05:42:35.199Z,88.99
2019-02-15T05:45:05.410Z,89.05
2019-02-15T05:47:34.735Z,89.14
2019-02-15T05:50:04.749Z,89.32
2019-02-15T05:52:34.082Z,89.32
2019-02-15T05:55:03.801Z,89.31
2019-02-15T05:57:33.135Z,89.33
2019-02-15T06:00:02.545Z,89.35
2019-02-15T06:02:31.917Z,89.24
2019-02-15T06:05:01.371Z,89.30
2019-02-15T06:07:32.409Z,89.19
2019-02-15T06:10:01.821Z,89.06
2019-02-15T06:12:31.159Z,89.07
2019-02-15T06:15:00.677Z,88.98
2019-02-15T06:17:30.685Z,88.89
2019-02-15T06:20:03.950Z,88.67
2019-02-15T06:22:36.927Z,88.37
2019-02-15T06:25:07.876Z,88.02
2019-02-15T06:27:37.193Z,87.79
2019-02-15T06:30:08.280Z,87.94
2019-02-15T06:32:37.782Z,87.38
2019-02-15T06:35:07.317Z,87.02
2019-02-15T06:37:36.683Z,87.16
2019-02-15T06:40:06.450Z,86.98
2019-02-15T06:42:35.816Z,86.36
2019-02-15T06:45:06.294Z,86.34
2019-02-15T06:47:35.665Z,85.64
2019-02-15T06:50:06.854Z,85.72
2019-02-15T06:52:36.226Z,85.93
2019-02-15T06:55:06.502Z,86.21
2019-02-15T06:57:35.868Z,86.06
2019-02-15T07:00:12.858Z,86.47
2019-02-15T07:02:46.676Z,86.12
2019-02-15T07:05:28.083Z,85.05
2019-02-15T07:07:57.520Z,85.02
2019-02-15T07:10:26.866Z,84.81
2019-02-15T07:12:56.245Z,84.73
2019-02-15T07:15:33.398Z,84.91
2019-02-15T07:17:56.646Z,85.43
2019-02-15T07:20:26.029Z,85.12
2019-02-15T07:22:55.394Z,85.29
2019-02-15T07:25:25.160Z,85.59
2019-02-15T07:27:54.530Z,85.18
2019-02-15T07:30:23.866Z,85.13
2019-02-15T07:32:53.793Z,85.31
2019-02-15T07:35:23.148Z,85.32
2019-02-15T07:37:52.624Z,84.55
2019-02-15T07:40:22.542Z,84.35
2019-02-15T07:42:51.910Z,84.25
2019-02-15T07:45:22.652Z,84.02
2019-02-15T07:47:52.198Z,84.00
2019-02-15T07:50:21.528Z,84.10
2019-02-15T07:52:51.705Z,84.02
2019-02-15T07:55:21.032Z,83.50
2019-02-15T07:57:50.796Z,83.58
2019-02-15T08:00:20.130Z,83.06
2019-02-15T08:02:50.045Z,82.90
2019-02-15T08:05:19.384Z,82.24
2019-02-15T08:07:48.795Z,82.11
2019-02-15T08:10:18.209Z,80.65
2019-02-15T08:12:47.628Z,79.92
2019-02-15T08:15:16.982Z,75.39
2019-02-15T08:17:46.467Z,68.97
2019-02-15T08:20:15.866Z,65.01
2019-02-15T08:22:45.244Z,64.08
2019-02-15T08:25:19.055Z,63.14
2019-02-15T08:27:53.099Z,62.39
2019-02-15T08:30:22.609Z,60.18
2019-02-15T08:32:52.036Z,59.75
2019-02-15T08:35:21.372Z,58.67
2019-02-15T08:37:50.741Z,63.44
2019-02-15T08:40:20.079Z,66.39
2019-02-15T08:42:49.893Z,69.04
2019-02-15T08:45:20.028Z,68.88
2019-02-15T08:47:49.405Z,69.44
2019-02-15T08:50:20.256Z,68.71
2019-02-15T08:52:49.621Z,69.18
2019-02-15T08:55:18.949Z,68.70
2019-02-15T08:57:48.329Z,68.37
2019-02-15T09:00:17.664Z,67.24
2019-02-15T09:02:48.218Z,66.78
2019-02-15T09:05:17.549Z,65.54
2019-02-15T09:07:46.913Z,63.37
2019-02-15T09:10:16.285Z,60.28
2019-02-15T09:12:45.628Z,57.09
2019-02-15T09:15:17.989Z,55.88
2019-02-15T09:17:47.342Z,54.14
2019-02-15T09:20:16.890Z,54.72
2019-02-15T09:22:46.236Z,53.47
2019-02-15T09:25:15.607Z,53.20
2019-02-15T09:27:46.583Z,53.64
2019-02-15T09:30:15.955Z,52.85
2019-02-15T09:32:45.287Z,52.05
2019-02-15T09:35:14.656Z,51.38
2019-02-15T09:37:43.996Z,50.33
2019-02-15T09:40:13.377Z,50.16
2019-02-15T09:42:42.720Z,50.43
2019-02-15T09:45:12.537Z,50.89
2019-02-15T09:47:41.871Z,50.43
2019-02-15T09:50:12.219Z,50.45
2019-02-15T09:52:41.822Z,51.63
2019-02-15T09:55:11.186Z,53.24
2019-02-15T09:57:40.525Z,53.92
2019-02-15T10:00:10.741Z,52.75
2019-02-15T10:02:40.066Z,54.00
2019-02-15T10:05:10.878Z,55.81
2019-02-15T10:07:40.218Z,56.60
2019-02-15T10:10:10.235Z,56.46
2019-02-15T10:12:39.576Z,57.62
2019-02-15T10:15:11.238Z,57.10
2019-02-15T10:17:40.571Z,58.37
2019-02-15T10:20:09.941Z,58.28
2019-02-15T10:22:39.272Z,58.80
2019-02-15T10:25:09.382Z,60.45
2019-02-15T10:27:38.729Z,61.54
2019-02-15T10:30:10.540Z,63.91
2019-02-15T10:32:39.909Z,64.21
2019-02-15T10:35:10.974Z,67.29
2019-02-15T10:37:40.320Z,68.96
2019-02-15T10:40:11.640Z,68.34
2019-02-15T10:42:40.972Z,69.28
2019-02-15T10:45:15.112Z,70.49
2019-02-15T10:47:44.495Z,70.32
2019-02-15T10:50:13.863Z,69.82
2019-02-15T10:52:43.199Z,70.96
2019-02-15T10:55:12.581Z,71.81
2019-02-15T10:57:41.911Z,72.05
2019-02-15T11:00:21.766Z,73.19
2019-02-15T11:02:51.169Z,72.92
2019-02-15T11:05:20.939Z,74.15
2019-02-15T11:07:50.281Z,74.19
2019-02-15T11:10:19.978Z,74.74
2019-02-15T11:12:49.322Z,75.41
2019-02-15T11:15:18.781Z,75.56
2019-02-15T11:17:48.187Z,75.57
2019-02-15T11:20:17.790Z,76.15
2019-02-15T11:22:47.158Z,75.93
2019-02-15T11:25:16.565Z,75.09
2019-02-15T11:27:45.959Z,75.76
2019-02-15T11:30:16.135Z,76.25
2019-02-15T11:32:45.517Z,76.57
2019-02-15T11:35:17.660Z,76.68
2019-02-15T11:37:47.441Z,76.41
2019-02-15T11:40:16.785Z,77.55
2019-02-15T11:42:46.184Z,77.09
2019-02-15T11:45:16.090Z,77.85
2019-02-15T11:47:45.473Z,77.48
2019-02-15T11:50:15.588Z,77.42
2019-02-15T11:52:44.962Z,77.72
2019-02-15T11:55:14.298Z,77.92
2019-02-15T11:57:43.675Z,77.56
2019-02-15T12:00:18.414Z,77.44
2019-02-15T12:02:48.087Z,78.07
2019-02-15T12:05:17.413Z,78.14
2019-02-15T12:07:46.762Z,77.44
2019-02-15T12:10:16.098Z,77.50
2019-02-15T12:12:45.480Z,77.28
2019-02-15T12:15:14.813Z,76.94
2019-02-15T12:17:44.176Z,77.03
2019-02-15T12:20:14.782Z,76.39
2019-02-15T12:22:44.108Z,76.58
2019-02-15T12:25:13.475Z,76.53
2019-02-15T12:27:42.814Z,76.62
2019-02-15T12:30:14.277Z,76.58
2019-02-15T12:32:43.623Z,75.88
2019-02-15T12:35:12.993Z,76.22
2019-02-15T12:37:42.320Z,77.16
2019-02-15T12:40:12.059Z,76.33
2019-02-15T12:42:41.561Z,77.20
2019-02-15T12:45:12.983Z,75.94
2019-02-15T12:47:42.315Z,76.91
2019-02-15T12:50:16.865Z,76.49
2019-02-15T12:52:46.198Z,75.94
2019-02-15T12:55:15.563Z,75.82
2019-02-15T12:57:44.891Z,75.20
2019-02-15T13:00:15.491Z,73.78
2019-02-15T13:02:44.847Z,72.98
2019-02-15T13:05:14.708Z,72.32
2019-02-15T13:07:44.116Z,72.56
2019-02-15T13:10:15.197Z,71.91
2019-02-15T13:12:44.531Z,71.35
2019-02-15T13:15:13.960Z,71.97
2019-02-15T13:17:43.320Z,69.12
2019-02-15T13:20:12.701Z,67.17
2019-02-15T13:22:42.054Z,66.84
2019-02-15T13:25:11.433Z,66.92
2019-02-15T13:27:40.765Z,65.34
2019-02-15T13:30:12.075Z,64.92
2019-02-15T13:32:41.686Z,62.72
2019-02-15T13:35:13.858Z,60.64
2019-02-15T13:37:43.195Z,59.02
2019-02-15T13:40:12.590Z,57.32
2019-02-15T13:42:41.968Z,56.75
2019-02-15T13:45:12.543Z,56.46
2019-02-15T13:47:41.934Z,56.14
2019-02-15T13:50:13.272Z,57.86
2019-02-15T13:52:42.651Z,57.48
2019-02-15T13:55:11.993Z,58.10
2019-02-15T13:57:41.367Z,58.25
2019-02-15T14:00:12.542Z,57.23
2019-02-15T14:02:41.917Z,58.09
2019-02-15T14:05:12.080Z,59.24
2019-02-15T14:07:41.483Z,61.04
2019-02-15T14:10:14.498Z,62.07
2019-02-15T14:12:43.891Z,62.01
2019-02-15T14:15:13.290Z,62.50
2019-02-15T14:17:46.330Z,61.04
2019-02-15T14:20:16.639Z,60.71
2019-02-15T14:22:46.021Z,59.59
2019-02-15T14:25:15.372Z,60.02
2019-02-15T14:27:44.746Z,60.02
2019-02-15T14:30:14.532Z,60.27
2019-02-15T14:32:43.898Z,60.96
2019-02-15T14:35:14.065Z,60.20
2019-02-15T14:37:43.445Z,61.14
2019-02-15T14:40:16.199Z,61.18
2019-02-15T14:42:45.562Z,62.22
2019-02-15T14:45:14.974Z,62.71
2019-02-15T14:47:53.912Z,63.47
2019-02-15T14:50:15.373Z,63.46
2019-02-15T14:52:44.756Z,63.92
2019-02-15T14:55:14.086Z,63.37
2019-02-15T14:57:43.459Z,64.92
2019-02-15T15:00:13.636Z,65.09
2019-02-15T15:02:43.003Z,65.31
2019-02-15T15:05:15.288Z,65.35
2019-02-15T15:07:44.658Z,65.34
2019-02-15T15:10:14.008Z,65.73
2019-02-15T15:12:43.373Z,66.68
2019-02-15T15:15:14.618Z,67.35
2019-02-15T15:17:44.000Z,67.22
2019-02-15T15:20:13.611Z,68.80
2019-02-15T15:22:42.989Z,69.83
2019-02-15T15:25:13.470Z,69.91
2019-02-15T15:27:42.844Z,69.93
2019-02-15T15:30:15.886Z,69.83
2019-02-15T15:32:45.252Z,70.07
2019-02-15T15:35:14.587Z,70.28
2019-02-15T15:37:43.957Z,71.36
2019-02-15T15:40:14.533Z,71.60
2019-02-15T15:42:43.902Z,71.38
2019-02-15T15:45:13.346Z,72.06
2019-02-15T15:47:42.742Z,72.88
2019-02-15T15:50:12.428Z,73.01
2019-02-15T15:52:41.791Z,72.97
2019-02-15T15:55:12.177Z,74.23
2019-02-15T15:57:41.554Z,73.72
2019-02-15T16:00:15.459Z,74.94
2019-02-15T16:02:44.823Z,76.05
2019-02-15T16:05:14.162Z,76.48
2019-02-15T16:07:43.955Z,76.71
2019-02-15T16:10:14.291Z,76.37
2019-02-15T16:12:43.654Z,76.40
2019-02-15T16:15:13.645Z,77.11
2019-02-15T16:17:43.018Z,77.27
2019-02-15T16:20:13.105Z,77.76
2019-02-15T16:22:42.497Z,77.20
2019-02-15T16:25:11.826Z,77.97
2019-02-15T16:27:43.411Z,78.32
2019-02-15T16:30:15.767Z,78.24
2019-02-15T16:32:45.131Z,78.63
2019-02-15T16:35:14.486Z,78.91
2019-02-15T16:37:43.871Z,78.65
2019-02-15T16:40:15.204Z,78.86
2019-02-15T16:42:44.585Z,78.91
2019-02-15T16:45:16.830Z,78.58
2019-02-15T16:47:46.189Z,79.17
2019-02-15T16:50:15.526Z,79.84
2019-02-15T16:52:44.987Z,79.44
2019-02-15T16:55:14.366Z,79.30
2019-02-15T16:57:43.697Z,78.50
2019-02-15T17:00:13.584Z,77.81
2019-02-15T17:02:42.973Z,79.02
2019-02-15T17:05:12.622Z,79.52
2019-02-15T17:07:41.947Z,79.67
2019-02-15T17:10:11.487Z,79.33
2019-02-15T17:12:40.820Z,78.22
2019-02-15T17:15:16.149Z,79.61
2019-02-15T17:17:45.558Z,79.20
2019-02-15T17:20:14.919Z,78.70
2019-02-15T17:22:44.302Z,78.41
2019-02-15T17:25:13.633Z,79.47
2019-02-15T17:27:42.974Z,78.82
2019-02-15T17:30:12.511Z,78.89
2019-02-15T17:32:41.853Z,79.61
2019-02-15T17:35:11.676Z,79.71
2019-02-15T17:37:41.001Z,79.58
2019-02-15T17:40:16.831Z,79.67
2019-02-15T17:42:46.169Z,80.51
2019-02-15T17:45:15.547Z,80.19
2019-02-15T17:47:44.878Z,79.98
2019-02-15T17:50:14.252Z,78.76
2019-02-15T17:52:43.587Z,79.48
2019-02-15T17:55:14.044Z,79.68
2019-02-15T17:57:43.416Z,79.25
2019-02-15T18:00:13.729Z,78.76
2019-02-15T18:02:43.078Z,78.81
2019-02-15T18:05:18.220Z,79.12
2019-02-15T18:07:49.655Z,79.70
2019-02-15T18:10:19.023Z,79.14
2019-02-15T18:12:48.652Z,79.08
2019-02-15T18:15:18.005Z,78.99
2019-02-15T18:17:47.341Z,79.55
2019-02-15T18:20:17.759Z,80.13
2019-02-15T18:22:47.103Z,80.00
2019-02-15T18:25:16.472Z,80.14
2019-02-15T18:27:45.815Z,80.89
2019-02-15T18:30:16.336Z,81.17
2019-02-15T18:32:45.680Z,82.37
2019-02-15T18:35:15.071Z,81.58
2019-02-15T18:37:44.395Z,80.49
2019-02-15T18:40:13.779Z,79.89
2019-02-15T18:42:43.117Z,80.46
2019-02-15T18:45:14.227Z,80.27
2019-02-15T18:47:43.565Z,81.37
2019-02-15T18:50:12.931Z,82.95
2019-02-15T18:52:42.289Z,82.91
2019-02-15T18:55:11.990Z,82.86
2019-02-15T18:57:41.334Z,83.09
2019-02-15T19:00:15.925Z,82.96
2019-02-15T19:02:49.608Z,83.24
2019-02-15T19:05:18.978Z,83.53
2019-02-15T19:07:48.314Z,83.67
2019-02-15T19:10:22.683Z,82.93
2019-02-15T19:12:52.200Z,82.52
2019-02-15T19:15:21.960Z,82.63
2019-02-15T19:17:51.298Z,84.12
2019-02-15T19:20:20.702Z,84.60
2019-02-15T19:22:50.030Z,83.95
2019-02-15T19:25:20.533Z,84.89
2019-02-15T19:27:49.868Z,84.01
2019-02-15T19:30:28.242Z,82.67
2019-02-15T19:32:57.570Z,82.31
2019-02-15T19:35:27.424Z,82.32
2019-02-15T19:37:56.766Z,81.95
2019-02-15T19:40:26.130Z,82.60
2019-02-15T19:42:59.115Z,83.17
2019-02-15T19:45:28.493Z,82.63
2019-02-15T19:47:58.436Z,82.10
2019-02-15T19:50:27.885Z,82.31
2019-02-15T19:52:57.230Z,82.84
2019-02-15T19:55:26.601Z,83.32
2019-02-15T19:57:56.116Z,83.53
2019-02-15T20:00:25.496Z,82.65
2019-02-15T20:02:54.838Z,82.09
2019-02-15T20:05:24.359Z,82.57
2019-02-15T20:07:53.703Z,83.85
2019-02-15T20:10:23.954Z,83.91
2019-02-15T20:12:53.295Z,84.17
2019-02-15T20:15:22.667Z,84.32
2019-02-15T20:17:52.006Z,85.17
2019-02-15T20:20:21.386Z,85.30
2019-02-15T20:22:50.724Z,85.44
2019-02-15T20:25:22.418Z,85.05
2019-02-15T20:27:51.755Z,84.95
2019-02-15T20:30:24.111Z,85.02
2019-02-15T20:32:53.450Z,83.89
2019-02-15T20:35:22.828Z,83.74
2019-02-15T20:37:52.608Z,84.83
2019-02-15T20:40:22.616Z,84.58
2019-02-15T20:42:52.612Z,84.29
2019-02-15T20:45:23.573Z,84.00
2019-02-15T20:47:53.155Z,85.04
2019-02-15T20:50:22.466Z,84.70
2019-02-15T20:52:51.841Z,83.88
2019-02-15T20:55:21.187Z,83.80
2019-02-15T20:57:52.631Z,84.16
2019-02-15T21:00:24.824Z,84.23
2019-02-15T21:02:54.665Z,84.00
2019-02-15T21:05:24.045Z,84.66
2019-02-15T21:07:53.879Z,84.62
2019-02-15T21:10:23.399Z,84.38
2019-02-15T21:12:52.764Z,84.84
2019-02-15T21:15:24.186Z,85.04
2019-02-15T21:17:53.180Z,84.87
2019-02-15T21:20:24.618Z,85.00
2019-02-15T21:22:54.629Z,85.27
2019-02-15T21:25:24.023Z,85.08
2019-02-15T21:27:55.694Z,85.27
2019-02-15T21:30:25.043Z,85.12
2019-02-15T21:32:54.682Z,84.51
2019-02-15T21:35:23.983Z,85.40
2019-02-15T21:37:53.824Z,85.09
2019-02-15T21:40:23.387Z,84.89
2019-02-15T21:42:52.745Z,84.95
2019-02-15T21:45:22.080Z,85.35
2019-02-15T21:47:51.454Z,86.11
2019-02-15T21:50:20.795Z,86.90
2019-02-15T21:52:50.151Z,86.59
2019-02-15T21:55:19.481Z,85.82
2019-02-15T21:57:48.842Z,85.12
2019-02-15T22:00:23.152Z,85.60
2019-02-15T22:02:52.611Z,85.86
2019-02-15T22:05:21.953Z,85.85
2019-02-15T22:07:51.313Z,85.54
2019-02-15T22:10:20.645Z,86.07
2019-02-15T22:12:50.005Z,86.34
2019-02-15T22:15:19.341Z,86.00
2019-02-15T22:17:48.697Z,85.93
2019-02-15T22:20:26.336Z,86.16
2019-02-15T22:22:49.257Z,86.18
2019-02-15T22:25:18.657Z,85.84
2019-02-15T22:27:48.287Z,85.44
2019-02-15T22:30:18.664Z,85.95
2019-02-15T22:32:48.218Z,85.59
2019-02-15T22:35:17.542Z,86.07
2019-02-15T22:37:46.912Z,85.44
2019-02-15T22:40:36.091Z,84.98
2019-02-15T22:43:11.067Z,84.98
2019-02-15T22:45:40.400Z,85.20
2019-02-15T22:48:09.789Z,84.72
2019-02-15T22:50:39.202Z,84.95
2019-02-15T22:53:08.836Z,85.66
2019-02-15T22:55:38.304Z,86.08
2019-02-15T22:58:07.689Z,86.08
2019-02-15T23:00:55.859Z,86.29
2019-02-15T23:03:26.811Z,86.29
2019-02-15T23:05:56.264Z,85.33
2019-02-15T23:08:25.748Z,85.21
2019-02-15T23:10:55.160Z,85.11
2019-02-15T23:13:24.525Z,85.00
2019-02-15T23:15:53.863Z,85.48
2019-02-15T23:18:23.874Z,85.42
2019-02-15T23:20:53.206Z,85.39
2019-02-15T23:23:22.624Z,85.34
2019-02-15T23:25:51.975Z,85.46
2019-02-15T23:28:21.385Z,85.50
2019-02-15T23:30:50.719Z,85.49
2019-02-15T23:33:20.175Z,85.25
2019-02-15T23:35:49.563Z,85.52
2019-02-15T23:38:18.942Z,84.65
2019-02-15T23:40:48.306Z,85.32
2019-02-15T23:43:17.708Z,85.91
2019-02-15T23:45:47.120Z,85.81
2019-02-15T23:48:16.506Z,85.47
2019-02-15T23:50:54.256Z,84.91
2019-02-15T23:53:16.961Z,84.18
2019-02-15T23:55:46.321Z,83.32
2019-02-15T23:58:15.657Z,83.80
